Dora, Oregon
Current Conditions -  °F | °C
As of 9:55 PM on Sunday 19 Oct 2014 (Local Time) from KOTH Reporting Station
Overcast Overcast  
Wind Chill: 64°   Ceiling: 4000
Heat Index: 64°   Visibility: 10mi
Dew Point: 57°   Wind: 10mph
Humidity: 77%   Direction: 200°SSW
Pressure: 29.76"   Gusts: 16mph
Location:  43.16°N, 123.96°W
Report Text: KOTH 200455Z 20009G14KT 10SM BKN040 BKN050 OVC110 18/14 A2976 RMK AO1
Loading
Personal Weather Stations






























Interactive Weather Map
Tropical Storm Tracking
New forecast layout! Learn more

10-Day Weather Forecast

Advertisements
Track Severe Weather on mobile